sensor_id;sensor_type;location;lat;lon;timestamp;temperature;humidity
41816;DHT22;27814;53.452;-6.180;2022-08-19T00:01:53;17.80;94.20
41816;DHT22;27814;53.452;-6.180;2022-08-19T00:04:24;17.70;94.30
41816;DHT22;27814;53.452;-6.180;2022-08-19T00:06:56;17.80;94.40
41816;DHT22;27814;53.452;-6.180;2022-08-19T00:09:25;17.70;94.40
41816;DHT22;27814;53.452;-6.180;2022-08-19T00:11:56;17.70;94.50
41816;DHT22;27814;53.452;-6.180;2022-08-19T00:14:26;17.70;94.50
41816;DHT22;27814;53.452;-6.180;2022-08-19T00:16:57;17.60;94.50
41816;DHT22;27814;53.452;-6.180;2022-08-19T00:19:25;17.70;94.60
41816;DHT22;27814;53.452;-6.180;2022-08-19T00:21:55;17.60;94.60
41816;DHT22;27814;53.452;-6.180;2022-08-19T00:24:24;17.60;94.60
41816;DHT22;27814;53.452;-6.180;2022-08-19T00:26:52;17.50;94.70
41816;DHT22;27814;53.452;-6.180;2022-08-19T00:29:23;17.50;94.70
41816;DHT22;27814;53.452;-6.180;2022-08-19T00:31:52;17.50;94.80
41816;DHT22;27814;53.452;-6.180;2022-08-19T00:34:22;17.50;94.90
41816;DHT22;27814;53.452;-6.180;2022-08-19T00:36:50;17.50;94.90
41816;DHT22;27814;53.452;-6.180;2022-08-19T00:39:20;17.40;95.00
41816;DHT22;27814;53.452;-6.180;2022-08-19T00:41:49;17.30;95.00
41816;DHT22;27814;53.452;-6.180;2022-08-19T00:44:20;17.30;95.20
41816;DHT22;27814;53.452;-6.180;2022-08-19T00:46:54;17.30;95.30
41816;DHT22;27814;53.452;-6.180;2022-08-19T00:49:28;17.30;95.40
41816;DHT22;27814;53.452;-6.180;2022-08-19T00:52:00;17.30;95.50
41816;DHT22;27814;53.452;-6.180;2022-08-19T00:54:31;17.20;95.60
41816;DHT22;27814;53.452;-6.180;2022-08-19T00:57:02;17.20;95.70
41816;DHT22;27814;53.452;-6.180;2022-08-19T00:59:35;17.20;95.80
41816;DHT22;27814;53.452;-6.180;2022-08-19T01:02:25;17.20;95.80
41816;DHT22;27814;53.452;-6.180;2022-08-19T01:04:55;17.20;95.90
41816;DHT22;27814;53.452;-6.180;2022-08-19T01:07:23;17.20;96.00
41816;DHT22;27814;53.452;-6.180;2022-08-19T01:09:54;17.20;96.00
41816;DHT22;27814;53.452;-6.180;2022-08-19T01:12:22;17.10;96.10
41816;DHT22;27814;53.452;-6.180;2022-08-19T01:14:51;17.10;96.20
41816;DHT22;27814;53.452;-6.180;2022-08-19T01:17:20;17.10;96.30
41816;DHT22;27814;53.452;-6.180;2022-08-19T01:19:49;17.10;96.30
41816;DHT22;27814;53.452;-6.180;2022-08-19T01:22:26;17.10;96.40
41816;DHT22;27814;53.452;-6.180;2022-08-19T01:25:00;17.00;96.50
41816;DHT22;27814;53.452;-6.180;2022-08-19T01:27:38;17.10;96.60
41816;DHT22;27814;53.452;-6.180;2022-08-19T01:30:11;17.10;96.60
41816;DHT22;27814;53.452;-6.180;2022-08-19T01:32:40;17.10;96.70
41816;DHT22;27814;53.452;-6.180;2022-08-19T01:35:11;17.00;96.70
41816;DHT22;27814;53.452;-6.180;2022-08-19T01:37:54;17.10;96.80
41816;DHT22;27814;53.452;-6.180;2022-08-19T01:40:25;17.00;96.90
41816;DHT22;27814;53.452;-6.180;2022-08-19T01:42:55;17.00;97.00
41816;DHT22;27814;53.452;-6.180;2022-08-19T01:45:25;17.00;97.00
41816;DHT22;27814;53.452;-6.180;2022-08-19T01:47:55;17.00;97.10
41816;DHT22;27814;53.452;-6.180;2022-08-19T01:50:29;17.00;97.20
41816;DHT22;27814;53.452;-6.180;2022-08-19T01:53:00;17.00;97.30
41816;DHT22;27814;53.452;-6.180;2022-08-19T01:55:36;16.90;97.30
41816;DHT22;27814;53.452;-6.180;2022-08-19T01:58:09;16.90;97.40
41816;DHT22;27814;53.452;-6.180;2022-08-19T02:00:39;16.80;97.50
41816;DHT22;27814;53.452;-6.180;2022-08-19T02:03:08;16.80;97.60
41816;DHT22;27814;53.452;-6.180;2022-08-19T02:05:39;16.80;97.70
41816;DHT22;27814;53.452;-6.180;2022-08-19T02:08:10;16.80;97.70
41816;DHT22;27814;53.452;-6.180;2022-08-19T02:10:39;16.80;97.70
41816;DHT22;27814;53.452;-6.180;2022-08-19T02:13:09;16.70;97.80
41816;DHT22;27814;53.452;-6.180;2022-08-19T02:15:38;16.70;97.90
41816;DHT22;27814;53.452;-6.180;2022-08-19T02:18:06;16.70;98.00
41816;DHT22;27814;53.452;-6.180;2022-08-19T02:20:36;16.70;98.00
41816;DHT22;27814;53.452;-6.180;2022-08-19T02:23:06;16.70;98.10
41816;DHT22;27814;53.452;-6.180;2022-08-19T02:25:44;16.70;98.10
41816;DHT22;27814;53.452;-6.180;2022-08-19T02:28:13;16.70;98.20
41816;DHT22;27814;53.452;-6.180;2022-08-19T02:30:46;16.70;98.20
41816;DHT22;27814;53.452;-6.180;2022-08-19T02:33:15;16.70;98.30
41816;DHT22;27814;53.452;-6.180;2022-08-19T02:35:45;16.60;98.30
41816;DHT22;27814;53.452;-6.180;2022-08-19T02:38:14;16.60;98.40
41816;DHT22;27814;53.452;-6.180;2022-08-19T02:40:58;16.60;98.50
41816;DHT22;27814;53.452;-6.180;2022-08-19T02:43:28;16.60;98.50
41816;DHT22;27814;53.452;-6.180;2022-08-19T02:46:00;16.60;98.50
41816;DHT22;27814;53.452;-6.180;2022-08-19T02:48:28;16.60;98.50
41816;DHT22;27814;53.452;-6.180;2022-08-19T02:50:59;16.60;98.60
41816;DHT22;27814;53.452;-6.180;2022-08-19T02:53:28;16.50;98.60
41816;DHT22;27814;53.452;-6.180;2022-08-19T02:55:58;16.50;98.70
41816;DHT22;27814;53.452;-6.180;2022-08-19T02:58:27;16.50;98.80
41816;DHT22;27814;53.452;-6.180;2022-08-19T03:00:56;16.50;98.80
41816;DHT22;27814;53.452;-6.180;2022-08-19T03:03:25;16.40;98.90
41816;DHT22;27814;53.452;-6.180;2022-08-19T03:06:07;16.40;98.90
41816;DHT22;27814;53.452;-6.180;2022-08-19T03:08:36;16.40;99.00
41816;DHT22;27814;53.452;-6.180;2022-08-19T03:11:11;16.40;99.10
41816;DHT22;27814;53.452;-6.180;2022-08-19T03:13:40;16.40;99.10
41816;DHT22;27814;53.452;-6.180;2022-08-19T03:16:10;16.40;99.10
41816;DHT22;27814;53.452;-6.180;2022-08-19T03:18:38;16.30;99.20
41816;DHT22;27814;53.452;-6.180;2022-08-19T03:21:07;16.40;99.20
41816;DHT22;27814;53.452;-6.180;2022-08-19T03:23:38;16.30;99.20
41816;DHT22;27814;53.452;-6.180;2022-08-19T03:26:08;16.30;99.30
41816;DHT22;27814;53.452;-6.180;2022-08-19T03:28:43;16.30;99.30
41816;DHT22;27814;53.452;-6.180;2022-08-19T03:31:25;16.30;99.40
41816;DHT22;27814;53.452;-6.180;2022-08-19T03:34:12;16.30;99.40
41816;DHT22;27814;53.452;-6.180;2022-08-19T03:36:41;16.30;99.50
41816;DHT22;27814;53.452;-6.180;2022-08-19T03:39:10;16.20;99.50
41816;DHT22;27814;53.452;-6.180;2022-08-19T03:41:42;16.30;99.60
41816;DHT22;27814;53.452;-6.180;2022-08-19T03:44:16;16.20;99.60
41816;DHT22;27814;53.452;-6.180;2022-08-19T03:46:47;16.20;99.60
41816;DHT22;27814;53.452;-6.180;2022-08-19T03:49:17;16.20;99.60
41816;DHT22;27814;53.452;-6.180;2022-08-19T03:51:47;16.10;99.70
41816;DHT22;27814;53.452;-6.180;2022-08-19T03:54:19;16.10;99.70
41816;DHT22;27814;53.452;-6.180;2022-08-19T03:56:50;16.10;99.80
41816;DHT22;27814;53.452;-6.180;2022-08-19T03:59:22;16.10;99.80
41816;DHT22;27814;53.452;-6.180;2022-08-19T04:01:53;16.10;99.90
41816;DHT22;27814;53.452;-6.180;2022-08-19T04:04:22;16.10;99.90
41816;DHT22;27814;53.452;-6.180;2022-08-19T04:06:55;16.10;99.90
41816;DHT22;27814;53.452;-6.180;2022-08-19T04:09:24;16.10;99.90
41816;DHT22;27814;53.452;-6.180;2022-08-19T04:11:55;16.10;99.90
41816;DHT22;27814;53.452;-6.180;2022-08-19T04:14:25;16.20;99.90
41816;DHT22;27814;53.452;-6.180;2022-08-19T04:16:55;16.20;99.90
41816;DHT22;27814;53.452;-6.180;2022-08-19T04:19:24;16.10;99.90
41816;DHT22;27814;53.452;-6.180;2022-08-19T04:21:54;16.10;99.90
41816;DHT22;27814;53.452;-6.180;2022-08-19T04:24:23;16.10;99.90
41816;DHT22;27814;53.452;-6.180;2022-08-19T04:26:51;16.10;99.90
41816;DHT22;27814;53.452;-6.180;2022-08-19T04:29:23;16.10;99.90
41816;DHT22;27814;53.452;-6.180;2022-08-19T04:31:55;16.10;99.90
41816;DHT22;27814;53.452;-6.180;2022-08-19T04:34:26;16.10;99.90
41816;DHT22;27814;53.452;-6.180;2022-08-19T04:36:57;16.10;99.90
41816;DHT22;27814;53.452;-6.180;2022-08-19T04:39:29;16.10;99.90
41816;DHT22;27814;53.452;-6.180;2022-08-19T04:42:11;16.10;99.90
41816;DHT22;27814;53.452;-6.180;2022-08-19T04:44:59;16.10;99.90
41816;DHT22;27814;53.452;-6.180;2022-08-19T04:47:27;16.00;99.90
41816;DHT22;27814;53.452;-6.180;2022-08-19T04:50:17;16.00;99.90
41816;DHT22;27814;53.452;-6.180;2022-08-19T04:52:46;16.00;99.90
41816;DHT22;27814;53.452;-6.180;2022-08-19T04:55:15;16.10;99.90
41816;DHT22;27814;53.452;-6.180;2022-08-19T04:57:43;16.00;99.90
41816;DHT22;27814;53.452;-6.180;2022-08-19T05:00:13;16.10;99.90
41816;DHT22;27814;53.452;-6.180;2022-08-19T05:02:41;16.00;99.90
41816;DHT22;27814;53.452;-6.180;2022-08-19T05:05:10;16.00;99.90
41816;DHT22;27814;53.452;-6.180;2022-08-19T05:07:39;16.10;99.90
41816;DHT22;27814;53.452;-6.180;2022-08-19T05:10:08;16.10;99.90
41816;DHT22;27814;53.452;-6.180;2022-08-19T05:12:36;16.10;99.90
41816;DHT22;27814;53.452;-6.180;2022-08-19T05:15:06;16.10;99.90
41816;DHT22;27814;53.452;-6.180;2022-08-19T05:17:36;16.00;99.90
41816;DHT22;27814;53.452;-6.180;2022-08-19T05:20:25;16.10;99.90
41816;DHT22;27814;53.452;-6.180;2022-08-19T05:23:11;16.10;99.90
41816;DHT22;27814;53.452;-6.180;2022-08-19T05:25:48;16.10;99.90
41816;DHT22;27814;53.452;-6.180;2022-08-19T05:28:17;16.10;99.90
41816;DHT22;27814;53.452;-6.180;2022-08-19T05:30:46;16.10;99.90
41816;DHT22;27814;53.452;-6.180;2022-08-19T05:33:17;16.10;99.90
41816;DHT22;27814;53.452;-6.180;2022-08-19T05:35:45;16.10;99.90
41816;DHT22;27814;53.452;-6.180;2022-08-19T05:38:15;16.10;99.90
41816;DHT22;27814;53.452;-6.180;2022-08-19T05:40:44;16.10;99.90
41816;DHT22;27814;53.452;-6.180;2022-08-19T05:43:16;16.10;99.90
41816;DHT22;27814;53.452;-6.180;2022-08-19T05:45:45;16.10;99.90
41816;DHT22;27814;53.452;-6.180;2022-08-19T05:48:14;16.10;99.90
41816;DHT22;27814;53.452;-6.180;2022-08-19T05:50:45;16.10;99.90
41816;DHT22;27814;53.452;-6.180;2022-08-19T05:53:17;16.20;99.90
41816;DHT22;27814;53.452;-6.180;2022-08-19T05:55:46;16.10;99.90
41816;DHT22;27814;53.452;-6.180;2022-08-19T05:58:14;16.20;99.90
41816;DHT22;27814;53.452;-6.180;2022-08-19T06:00:44;16.20;99.90
41816;DHT22;27814;53.452;-6.180;2022-08-19T06:03:12;16.20;99.90
41816;DHT22;27814;53.452;-6.180;2022-08-19T06:05:41;16.30;99.90
41816;DHT22;27814;53.452;-6.180;2022-08-19T06:08:19;16.30;99.90
41816;DHT22;27814;53.452;-6.180;2022-08-19T06:11:18;16.30;99.90
41816;DHT22;27814;53.452;-6.180;2022-08-19T06:13:48;16.40;99.90
41816;DHT22;27814;53.452;-6.180;2022-08-19T06:16:25;16.40;99.90
41816;DHT22;27814;53.452;-6.180;2022-08-19T06:18:54;16.40;99.90
41816;DHT22;27814;53.452;-6.180;2022-08-19T06:21:25;16.40;99.90
41816;DHT22;27814;53.452;-6.180;2022-08-19T06:23:57;16.40;99.90
41816;DHT22;27814;53.452;-6.180;2022-08-19T06:26:27;16.40;99.90
41816;DHT22;27814;53.452;-6.180;2022-08-19T06:28:55;16.40;99.90
41816;DHT22;27814;53.452;-6.180;2022-08-19T06:31:27;16.40;99.90
41816;DHT22;27814;53.452;-6.180;2022-08-19T06:33:55;16.50;99.90
41816;DHT22;27814;53.452;-6.180;2022-08-19T06:36:27;16.50;99.90
41816;DHT22;27814;53.452;-6.180;2022-08-19T06:39:00;16.50;99.90
41816;DHT22;27814;53.452;-6.180;2022-08-19T06:41:29;16.60;99.90
41816;DHT22;27814;53.452;-6.180;2022-08-19T06:43:58;16.50;99.90
41816;DHT22;27814;53.452;-6.180;2022-08-19T06:46:26;16.60;99.90
41816;DHT22;27814;53.452;-6.180;2022-08-19T06:48:59;16.60;99.90
41816;DHT22;27814;53.452;-6.180;2022-08-19T06:51:29;16.50;99.90
41816;DHT22;27814;53.452;-6.180;2022-08-19T06:54:00;16.50;99.90
41816;DHT22;27814;53.452;-6.180;2022-08-19T06:56:30;16.50;99.90
41816;DHT22;27814;53.452;-6.180;2022-08-19T06:59:02;16.50;99.90
41816;DHT22;27814;53.452;-6.180;2022-08-19T07:01:33;16.60;99.90
41816;DHT22;27814;53.452;-6.180;2022-08-19T07:04:02;16.60;99.90
41816;DHT22;27814;53.452;-6.180;2022-08-19T07:06:30;16.70;99.90
41816;DHT22;27814;53.452;-6.180;2022-08-19T07:09:15;16.70;99.90
41816;DHT22;27814;53.452;-6.180;2022-08-19T07:11:45;16.70;99.90
41816;DHT22;27814;53.452;-6.180;2022-08-19T07:14:15;16.70;99.90
41816;DHT22;27814;53.452;-6.180;2022-08-19T07:16:46;16.80;99.90
41816;DHT22;27814;53.452;-6.180;2022-08-19T07:19:15;16.80;99.90
41816;DHT22;27814;53.452;-6.180;2022-08-19T07:21:45;16.90;99.90
41816;DHT22;27814;53.452;-6.180;2022-08-19T07:24:15;16.90;99.90
41816;DHT22;27814;53.452;-6.180;2022-08-19T07:26:44;17.00;99.90
41816;DHT22;27814;53.452;-6.180;2022-08-19T07:29:18;17.00;99.90
41816;DHT22;27814;53.452;-6.180;2022-08-19T07:31:52;17.10;99.80
41816;DHT22;27814;53.452;-6.180;2022-08-19T07:34:23;17.10;99.70
41816;DHT22;27814;53.452;-6.180;2022-08-19T07:36:52;17.20;99.70
41816;DHT22;27814;53.452;-6.180;2022-08-19T07:39:24;17.20;99.50
41816;DHT22;27814;53.452;-6.180;2022-08-19T07:41:54;17.30;99.50
41816;DHT22;27814;53.452;-6.180;2022-08-19T07:44:23;17.30;99.50
41816;DHT22;27814;53.452;-6.180;2022-08-19T07:46:53;17.40;99.40
41816;DHT22;27814;53.452;-6.180;2022-08-19T07:49:22;17.30;99.30
41816;DHT22;27814;53.452;-6.180;2022-08-19T07:51:53;17.30;99.30
41816;DHT22;27814;53.452;-6.180;2022-08-19T07:54:25;17.30;99.30
41816;DHT22;27814;53.452;-6.180;2022-08-19T07:56:54;17.30;99.40
41816;DHT22;27814;53.452;-6.180;2022-08-19T07:59:23;17.20;99.40
41816;DHT22;27814;53.452;-6.180;2022-08-19T08:01:52;17.20;99.50
41816;DHT22;27814;53.452;-6.180;2022-08-19T08:04:21;17.30;99.40
41816;DHT22;27814;53.452;-6.180;2022-08-19T08:07:08;17.30;99.20
41816;DHT22;27814;53.452;-6.180;2022-08-19T08:09:59;17.30;99.10
41816;DHT22;27814;53.452;-6.180;2022-08-19T08:12:31;17.40;99.20
41816;DHT22;27814;53.452;-6.180;2022-08-19T08:15:05;17.40;99.10
41816;DHT22;27814;53.452;-6.180;2022-08-19T08:17:39;17.40;99.10
41816;DHT22;27814;53.452;-6.180;2022-08-19T08:20:18;17.50;99.20
41816;DHT22;27814;53.452;-6.180;2022-08-19T08:22:47;17.60;99.10
41816;DHT22;27814;53.452;-6.180;2022-08-19T08:25:36;17.70;98.80
41816;DHT22;27814;53.452;-6.180;2022-08-19T08:28:05;17.80;98.50
41816;DHT22;27814;53.452;-6.180;2022-08-19T08:30:37;17.80;98.30
41816;DHT22;27814;53.452;-6.180;2022-08-19T08:33:11;17.80;98.30
41816;DHT22;27814;53.452;-6.180;2022-08-19T08:35:40;17.80;98.30
41816;DHT22;27814;53.452;-6.180;2022-08-19T08:38:09;17.90;98.30
41816;DHT22;27814;53.452;-6.180;2022-08-19T08:40:44;18.00;98.20
41816;DHT22;27814;53.452;-6.180;2022-08-19T08:43:21;18.10;98.10
41816;DHT22;27814;53.452;-6.180;2022-08-19T08:45:56;18.10;98.10
41816;DHT22;27814;53.452;-6.180;2022-08-19T08:48:34;18.20;97.90
41816;DHT22;27814;53.452;-6.180;2022-08-19T08:51:06;18.30;97.60
41816;DHT22;27814;53.452;-6.180;2022-08-19T08:53:37;18.30;97.50
41816;DHT22;27814;53.452;-6.180;2022-08-19T08:56:09;18.40;97.50
41816;DHT22;27814;53.452;-6.180;2022-08-19T08:58:51;18.40;97.30
41816;DHT22;27814;53.452;-6.180;2022-08-19T09:01:22;18.50;97.20
41816;DHT22;27814;53.452;-6.180;2022-08-19T09:03:56;18.40;96.90
41816;DHT22;27814;53.452;-6.180;2022-08-19T09:06:35;18.40;96.80
41816;DHT22;27814;53.452;-6.180;2022-08-19T09:09:13;18.40;96.90
41816;DHT22;27814;53.452;-6.180;2022-08-19T09:11:50;18.40;96.80
41816;DHT22;27814;53.452;-6.180;2022-08-19T09:14:37;18.30;96.70
41816;DHT22;27814;53.452;-6.180;2022-08-19T09:17:19;18.30;96.70
41816;DHT22;27814;53.452;-6.180;2022-08-19T09:19:57;18.30;96.60
41816;DHT22;27814;53.452;-6.180;2022-08-19T09:22:27;18.30;96.60
41816;DHT22;27814;53.452;-6.180;2022-08-19T09:24:55;18.40;96.60
41816;DHT22;27814;53.452;-6.180;2022-08-19T09:27:26;18.40;96.40
41816;DHT22;27814;53.452;-6.180;2022-08-19T09:30:12;18.50;96.30
41816;DHT22;27814;53.452;-6.180;2022-08-19T09:32:41;18.60;96.00
41816;DHT22;27814;53.452;-6.180;2022-08-19T09:35:10;18.70;95.50
41816;DHT22;27814;53.452;-6.180;2022-08-19T09:37:40;18.80;95.40
41816;DHT22;27814;53.452;-6.180;2022-08-19T09:40:11;18.90;95.30
41816;DHT22;27814;53.452;-6.180;2022-08-19T09:42:42;18.90;95.20
41816;DHT22;27814;53.452;-6.180;2022-08-19T09:45:19;19.00;95.20
41816;DHT22;27814;53.452;-6.180;2022-08-19T09:47:50;19.10;95.10
41816;DHT22;27814;53.452;-6.180;2022-08-19T09:50:21;19.10;95.00
41816;DHT22;27814;53.452;-6.180;2022-08-19T09:52:50;19.30;95.00
41816;DHT22;27814;53.452;-6.180;2022-08-19T09:55:24;19.40;94.90
41816;DHT22;27814;53.452;-6.180;2022-08-19T09:58:01;19.60;94.80
41816;DHT22;27814;53.452;-6.180;2022-08-19T10:00:29;19.70;94.50
41816;DHT22;27814;53.452;-6.180;2022-08-19T10:02:58;19.80;94.40
41816;DHT22;27814;53.452;-6.180;2022-08-19T10:05:27;19.80;94.20
41816;DHT22;27814;53.452;-6.180;2022-08-19T10:08:17;19.80;94.00
41816;DHT22;27814;53.452;-6.180;2022-08-19T10:10:47;19.80;93.80
41816;DHT22;27814;53.452;-6.180;2022-08-19T10:13:19;19.80;93.70
41816;DHT22;27814;53.452;-6.180;2022-08-19T10:15:52;19.70;93.70
41816;DHT22;27814;53.452;-6.180;2022-08-19T10:18:23;19.70;93.60
41816;DHT22;27814;53.452;-6.180;2022-08-19T10:21:01;19.70;93.60
41816;DHT22;27814;53.452;-6.180;2022-08-19T10:23:30;19.70;93.70
41816;DHT22;27814;53.452;-6.180;2022-08-19T10:26:01;19.70;93.80
41816;DHT22;27814;53.452;-6.180;2022-08-19T10:28:32;19.70;93.80
41816;DHT22;27814;53.452;-6.180;2022-08-19T10:31:06;19.70;93.90
41816;DHT22;27814;53.452;-6.180;2022-08-19T10:33:35;19.70;94.00
41816;DHT22;27814;53.452;-6.180;2022-08-19T10:36:22;19.60;94.00
41816;DHT22;27814;53.452;-6.180;2022-08-19T10:38:52;19.70;94.00
41816;DHT22;27814;53.452;-6.180;2022-08-19T10:41:26;19.60;93.90
41816;DHT22;27814;53.452;-6.180;2022-08-19T10:43:58;19.60;94.10
41816;DHT22;27814;53.452;-6.180;2022-08-19T10:46:31;19.50;94.60
41816;DHT22;27814;53.452;-6.180;2022-08-19T10:49:00;19.50;95.00
41816;DHT22;27814;53.452;-6.180;2022-08-19T10:51:29;19.50;95.20
41816;DHT22;27814;53.452;-6.180;2022-08-19T10:54:15;19.40;95.40
41816;DHT22;27814;53.452;-6.180;2022-08-19T10:56:59;19.50;95.50
41816;DHT22;27814;53.452;-6.180;2022-08-19T10:59:29;19.40;95.40
41816;DHT22;27814;53.452;-6.180;2022-08-19T11:02:03;19.40;95.50
41816;DHT22;27814;53.452;-6.180;2022-08-19T11:04:32;19.30;95.20
41816;DHT22;27814;53.452;-6.180;2022-08-19T11:07:02;19.20;94.90
41816;DHT22;27814;53.452;-6.180;2022-08-19T11:09:31;19.10;94.90
41816;DHT22;27814;53.452;-6.180;2022-08-19T11:12:00;19.00;94.90
41816;DHT22;27814;53.452;-6.180;2022-08-19T11:14:33;18.90;94.90
41816;DHT22;27814;53.452;-6.180;2022-08-19T11:17:02;18.90;94.90
41816;DHT22;27814;53.452;-6.180;2022-08-19T11:19:31;18.90;94.80
41816;DHT22;27814;53.452;-6.180;2022-08-19T11:22:01;19.00;94.70
41816;DHT22;27814;53.452;-6.180;2022-08-19T11:24:30;19.10;94.70
41816;DHT22;27814;53.452;-6.180;2022-08-19T11:27:07;19.20;94.50
41816;DHT22;27814;53.452;-6.180;2022-08-19T11:29:38;19.20;94.20
41816;DHT22;27814;53.452;-6.180;2022-08-19T11:32:08;19.20;94.00
41816;DHT22;27814;53.452;-6.180;2022-08-19T11:34:37;19.30;94.00
41816;DHT22;27814;53.452;-6.180;2022-08-19T11:37:06;19.40;93.80
41816;DHT22;27814;53.452;-6.180;2022-08-19T11:39:36;19.50;93.90
41816;DHT22;27814;53.452;-6.180;2022-08-19T11:42:06;19.60;93.80
41816;DHT22;27814;53.452;-6.180;2022-08-19T11:44:56;19.70;93.60
41816;DHT22;27814;53.452;-6.180;2022-08-19T11:47:24;19.90;93.40
41816;DHT22;27814;53.452;-6.180;2022-08-19T11:49:53;20.00;93.40
41816;DHT22;27814;53.452;-6.180;2022-08-19T11:52:21;20.10;93.30
41816;DHT22;27814;53.452;-6.180;2022-08-19T11:54:49;20.20;93.20
41816;DHT22;27814;53.452;-6.180;2022-08-19T11:57:18;20.30;93.30
41816;DHT22;27814;53.452;-6.180;2022-08-19T11:59:50;20.40;93.10
41816;DHT22;27814;53.452;-6.180;2022-08-19T12:02:20;20.50;92.80
41816;DHT22;27814;53.452;-6.180;2022-08-19T12:04:50;20.60;92.60
41816;DHT22;27814;53.452;-6.180;2022-08-19T12:07:18;20.70;92.40
41816;DHT22;27814;53.452;-6.180;2022-08-19T12:09:47;20.70;92.00
41816;DHT22;27814;53.452;-6.180;2022-08-19T12:12:15;20.80;91.90
41816;DHT22;27814;53.452;-6.180;2022-08-19T12:14:44;20.70;92.00
41816;DHT22;27814;53.452;-6.180;2022-08-19T12:17:13;20.70;92.00
41816;DHT22;27814;53.452;-6.180;2022-08-19T12:19:43;20.70;92.00
41816;DHT22;27814;53.452;-6.180;2022-08-19T12:22:11;20.70;92.00
41816;DHT22;27814;53.452;-6.180;2022-08-19T12:24:40;20.70;92.30
41816;DHT22;27814;53.452;-6.180;2022-08-19T12:27:08;20.90;92.30
41816;DHT22;27814;53.452;-6.180;2022-08-19T12:29:38;21.00;92.00
41816;DHT22;27814;53.452;-6.180;2022-08-19T12:32:08;21.10;91.70
41816;DHT22;27814;53.452;-6.180;2022-08-19T12:34:38;21.20;91.50
41816;DHT22;27814;53.452;-6.180;2022-08-19T12:37:08;21.20;91.30
41816;DHT22;27814;53.452;-6.180;2022-08-19T12:39:39;21.20;91.10
41816;DHT22;27814;53.452;-6.180;2022-08-19T12:42:09;21.20;91.00
41816;DHT22;27814;53.452;-6.180;2022-08-19T12:44:39;21.20;90.70
41816;DHT22;27814;53.452;-6.180;2022-08-19T12:47:10;21.10;90.50
41816;DHT22;27814;53.452;-6.180;2022-08-19T12:49:39;21.10;90.60
41816;DHT22;27814;53.452;-6.180;2022-08-19T12:52:23;21.10;90.60
41816;DHT22;27814;53.452;-6.180;2022-08-19T12:54:53;21.10;90.70
41816;DHT22;27814;53.452;-6.180;2022-08-19T12:57:23;21.20;90.60
41816;DHT22;27814;53.452;-6.180;2022-08-19T13:00:00;21.20;90.40
41816;DHT22;27814;53.452;-6.180;2022-08-19T13:02:32;21.30;90.30
41816;DHT22;27814;53.452;-6.180;2022-08-19T13:05:07;21.30;90.30
41816;DHT22;27814;53.452;-6.180;2022-08-19T13:07:39;21.40;90.30
41816;DHT22;27814;53.452;-6.180;2022-08-19T13:10:09;21.40;90.00
41816;DHT22;27814;53.452;-6.180;2022-08-19T13:12:39;21.40;89.70
41816;DHT22;27814;53.452;-6.180;2022-08-19T13:15:09;21.40;89.60
41816;DHT22;27814;53.452;-6.180;2022-08-19T13:17:39;21.40;89.50
41816;DHT22;27814;53.452;-6.180;2022-08-19T13:20:09;21.40;89.50
41816;DHT22;27814;53.452;-6.180;2022-08-19T13:22:39;21.40;89.50
41816;DHT22;27814;53.452;-6.180;2022-08-19T13:25:08;21.40;89.50
41816;DHT22;27814;53.452;-6.180;2022-08-19T13:27:38;21.50;89.30
41816;DHT22;27814;53.452;-6.180;2022-08-19T13:30:10;21.50;89.40
41816;DHT22;27814;53.452;-6.180;2022-08-19T13:32:56;21.50;89.30
41816;DHT22;27814;53.452;-6.180;2022-08-19T13:35:45;21.50;89.60
41816;DHT22;27814;53.452;-6.180;2022-08-19T13:38:17;21.40;89.90
41816;DHT22;27814;53.452;-6.180;2022-08-19T13:40:48;21.40;90.00
41816;DHT22;27814;53.452;-6.180;2022-08-19T13:43:18;21.40;89.90
41816;DHT22;27814;53.452;-6.180;2022-08-19T13:45:51;21.40;89.70
41816;DHT22;27814;53.452;-6.180;2022-08-19T13:48:23;21.50;89.50
41816;DHT22;27814;53.452;-6.180;2022-08-19T13:50:53;21.60;89.30
41816;DHT22;27814;53.452;-6.180;2022-08-19T13:53:23;21.80;88.70
41816;DHT22;27814;53.452;-6.180;2022-08-19T13:55:51;21.90;88.40
41816;DHT22;27814;53.452;-6.180;2022-08-19T13:58:20;21.90;87.70
41816;DHT22;27814;53.452;-6.180;2022-08-19T14:00:49;22.00;87.30
41816;DHT22;27814;53.452;-6.180;2022-08-19T14:03:18;22.10;87.10
41816;DHT22;27814;53.452;-6.180;2022-08-19T14:05:46;22.10;86.70
41816;DHT22;27814;53.452;-6.180;2022-08-19T14:08:14;22.20;86.00
41816;DHT22;27814;53.452;-6.180;2022-08-19T14:10:45;22.10;85.70
41816;DHT22;27814;53.452;-6.180;2022-08-19T14:13:16;22.10;85.60
41816;DHT22;27814;53.452;-6.180;2022-08-19T14:15:45;22.10;85.50
41816;DHT22;27814;53.452;-6.180;2022-08-19T14:18:14;22.10;85.90
41816;DHT22;27814;53.452;-6.180;2022-08-19T14:20:43;22.10;85.90
41816;DHT22;27814;53.452;-6.180;2022-08-19T14:23:12;22.20;86.00
41816;DHT22;27814;53.452;-6.180;2022-08-19T14:25:41;22.20;85.60
41816;DHT22;27814;53.452;-6.180;2022-08-19T14:28:11;22.30;85.20
41816;DHT22;27814;53.452;-6.180;2022-08-19T14:30:40;22.30;85.10
41816;DHT22;27814;53.452;-6.180;2022-08-19T14:33:11;22.30;84.80
41816;DHT22;27814;53.452;-6.180;2022-08-19T14:35:40;22.20;84.50
41816;DHT22;27814;53.452;-6.180;2022-08-19T14:38:16;22.10;85.90
41816;DHT22;27814;53.452;-6.180;2022-08-19T14:41:10;22.00;90.30
41816;DHT22;27814;53.452;-6.180;2022-08-19T14:43:40;21.70;90.90
41816;DHT22;27814;53.452;-6.180;2022-08-19T14:46:09;21.60;91.20
41816;DHT22;27814;53.452;-6.180;2022-08-19T14:48:57;21.50;91.20
41816;DHT22;27814;53.452;-6.180;2022-08-19T14:51:26;21.60;91.20
41816;DHT22;27814;53.452;-6.180;2022-08-19T14:53:54;21.60;91.00
41816;DHT22;27814;53.452;-6.180;2022-08-19T14:56:24;21.70;91.00
41816;DHT22;27814;53.452;-6.180;2022-08-19T14:58:55;21.80;90.80
41816;DHT22;27814;53.452;-6.180;2022-08-19T15:01:27;21.80;90.30
41816;DHT22;27814;53.452;-6.180;2022-08-19T15:03:55;21.90;90.10
41816;DHT22;27814;53.452;-6.180;2022-08-19T15:06:24;21.90;90.10
41816;DHT22;27814;53.452;-6.180;2022-08-19T15:08:53;22.00;90.20
41816;DHT22;27814;53.452;-6.180;2022-08-19T15:11:25;22.10;90.20
41816;DHT22;27814;53.452;-6.180;2022-08-19T15:13:56;22.10;90.20
41816;DHT22;27814;53.452;-6.180;2022-08-19T15:16:25;22.10;90.10
41816;DHT22;27814;53.452;-6.180;2022-08-19T15:18:56;22.10;90.40
41816;DHT22;27814;53.452;-6.180;2022-08-19T15:21:26;22.20;90.60
41816;DHT22;27814;53.452;-6.180;2022-08-19T15:23:57;22.30;90.50
41816;DHT22;27814;53.452;-6.180;2022-08-19T15:26:26;22.40;90.20
41816;DHT22;27814;53.452;-6.180;2022-08-19T15:29:06;22.40;90.00
41816;DHT22;27814;53.452;-6.180;2022-08-19T15:31:35;22.50;89.70
41816;DHT22;27814;53.452;-6.180;2022-08-19T15:34:04;22.40;89.80
41816;DHT22;27814;53.452;-6.180;2022-08-19T15:36:36;22.40;90.10
41816;DHT22;27814;53.452;-6.180;2022-08-19T15:39:05;22.30;90.10
41816;DHT22;27814;53.452;-6.180;2022-08-19T15:41:36;22.30;90.00
41816;DHT22;27814;53.452;-6.180;2022-08-19T15:44:11;22.30;89.70